createdAt,value
2022-10-18T00:00:33.791Z,102385.63
2022-10-18T00:03:01.536Z,102390.34
2022-10-18T00:05:29.021Z,102388.59
2022-10-18T00:07:56.498Z,102380.53
2022-10-18T00:10:24.973Z,102377.31
2022-10-18T00:12:53.041Z,102375.84
2022-10-18T00:15:23.171Z,102370.09
2022-10-18T00:18:10.900Z,102374.50
2022-10-18T00:21:15.093Z,102375.22
2022-10-18T00:24:15.849Z,102358.59
2022-10-18T00:26:57.096Z,102359.28
2022-10-18T00:29:45.847Z,102357.41
2022-10-18T00:32:29.926Z,102359.16
2022-10-18T00:35:00.458Z,102359.44
2022-10-18T00:37:30.746Z,102359.19
2022-10-18T00:40:01.643Z,102358.91
2022-10-18T00:42:37.383Z,102353.78
2022-10-18T00:45:04.745Z,102348.94
2022-10-18T00:47:35.838Z,102351.91
2022-10-18T00:50:24.799Z,102351.69
2022-10-18T00:53:11.397Z,102338.53
2022-10-18T00:55:59.230Z,102338.88
2022-10-18T00:58:41.711Z,102341.88
2022-10-18T01:01:14.253Z,102341.16
2022-10-18T01:03:42.266Z,102341.16
2022-10-18T01:06:10.793Z,102335.78
2022-10-18T01:08:43.852Z,102338.53
2022-10-18T01:11:22.400Z,102337.44
2022-10-18T01:14:10.433Z,102338.41
2022-10-18T01:17:10.001Z,102338.47
2022-10-18T01:19:42.963Z,102338.94
2022-10-18T01:22:18.617Z,102331.72
2022-10-18T01:25:08.899Z,102336.16
2022-10-18T01:28:26.944Z,102329.94
2022-10-18T01:31:45.686Z,102330.00
2022-10-18T01:34:28.915Z,102333.09
2022-10-18T01:36:57.298Z,102333.16
2022-10-18T01:39:27.533Z,102323.50
2022-10-18T01:41:57.128Z,102319.97
2022-10-18T01:44:26.027Z,102317.75
2022-10-18T01:46:54.895Z,102319.97
2022-10-18T01:49:21.863Z,102322.31
2022-10-18T01:51:48.778Z,102321.34
2022-10-18T01:54:37.749Z,102321.84
2022-10-18T01:57:32.551Z,102314.81
2022-10-18T01:59:59.400Z,102325.78
2022-10-18T02:02:42.633Z,102325.03
2022-10-18T02:05:30.125Z,102324.88
2022-10-18T02:08:23.157Z,102326.53
2022-10-18T02:11:12.831Z,102323.59
2022-10-18T02:14:09.043Z,102325.50
2022-10-18T02:16:38.958Z,102320.84
2022-10-18T02:19:12.395Z,102312.25
2022-10-18T02:21:41.104Z,102307.56
2022-10-18T02:24:28.943Z,102306.56
2022-10-18T02:27:10.146Z,102309.94
2022-10-18T02:29:57.766Z,102305.53
2022-10-18T02:33:01.882Z,102301.28
2022-10-18T02:35:46.549Z,102308.84
2022-10-18T02:38:14.626Z,102298.63
2022-10-18T02:40:41.699Z,102299.69
2022-10-18T02:43:08.904Z,102301.47
2022-10-18T02:45:35.903Z,102295.41
2022-10-18T02:48:03.029Z,102297.94
2022-10-18T02:50:32.428Z,102296.06
2022-10-18T02:52:59.438Z,102297.06
2022-10-18T02:55:46.894Z,102291.66
2022-10-18T02:58:31.561Z,102288.00
2022-10-18T03:01:18.828Z,102299.53
2022-10-18T03:04:19.783Z,102298.69
2022-10-18T03:07:20.690Z,102290.69
2022-10-18T03:09:55.547Z,102292.16
2022-10-18T03:12:22.474Z,102296.75
2022-10-18T03:14:49.313Z,102290.81
2022-10-18T03:17:16.219Z,102295.41
2022-10-18T03:19:42.933Z,102293.97
2022-10-18T03:22:09.831Z,102289.91
2022-10-18T03:24:56.725Z,102291.09
2022-10-18T03:27:37.225Z,102290.97
2022-10-18T03:30:24.708Z,102030.75
2022-10-18T03:33:18.886Z,102295.25
2022-10-18T03:35:59.299Z,102299.53
2022-10-18T03:38:26.063Z,102298.69
2022-10-18T03:40:52.888Z,102296.38
2022-10-18T03:43:19.677Z,102297.56
2022-10-18T03:45:46.474Z,102293.16
2022-10-18T03:48:13.263Z,102288.88
2022-10-18T03:50:40.056Z,102295.72
2022-10-18T03:53:06.809Z,102295.34
2022-10-18T03:55:53.715Z,102290.50
2022-10-18T03:58:54.760Z,102294.16
2022-10-18T04:01:35.248Z,102303.00
2022-10-18T04:04:02.113Z,102295.94
2022-10-18T04:06:28.851Z,102302.16
2022-10-18T04:08:55.716Z,102301.88
2022-10-18T04:11:23.446Z,102300.88
2022-10-18T04:13:50.499Z,102297.50
2022-10-18T04:16:17.374Z,102306.44
2022-10-18T04:18:44.194Z,102306.81
2022-10-18T04:21:11.104Z,102311.94
2022-10-18T04:24:00.806Z,102314.69
2022-10-18T04:26:51.236Z,102312.72
2022-10-18T04:29:38.740Z,102311.78
2022-10-18T04:32:19.281Z,102304.38
2022-10-18T04:34:46.030Z,102308.97
2022-10-18T04:37:12.764Z,102312.09
2022-10-18T04:39:39.546Z,102308.44
2022-10-18T04:42:06.296Z,102308.22
2022-10-18T04:44:33.320Z,102305.00
2022-10-18T04:47:00.193Z,102311.53
2022-10-18T04:49:46.776Z,102300.03
2022-10-18T04:52:47.749Z,102303.91
2022-10-18T04:55:48.761Z,102298.94
2022-10-18T04:58:40.404Z,102301.09
2022-10-18T05:01:27.859Z,102299.69
2022-10-18T05:04:12.756Z,102297.41
2022-10-18T05:07:03.785Z,102289.94
2022-10-18T05:09:44.164Z,102298.63
2022-10-18T05:12:30.930Z,102295.94
2022-10-18T05:15:31.917Z,102290.53
2022-10-18T05:18:12.302Z,102285.41
2022-10-18T05:20:39.073Z,102299.97
2022-10-18T05:23:05.833Z,102291.50
2022-10-18T05:25:52.812Z,102295.00
2022-10-18T05:28:53.980Z,102291.94
2022-10-18T05:31:34.259Z,102296.50
2022-10-18T05:34:02.049Z,102285.06
2022-10-18T05:36:28.919Z,102292.09
2022-10-18T05:38:56.271Z,102280.38
2022-10-18T05:41:43.789Z,102283.19
2022-10-18T05:44:24.331Z,102282.44
2022-10-18T05:47:11.820Z,102286.38
2022-10-18T05:49:52.249Z,102290.44
2022-10-18T05:52:19.200Z,102280.22
2022-10-18T05:55:06.799Z,102291.41
2022-10-18T05:58:07.819Z,102286.44
2022-10-18T06:00:48.309Z,102286.44
2022-10-18T06:03:15.311Z,102287.38
2022-10-18T06:05:42.171Z,102279.22
2022-10-18T06:08:10.316Z,102283.25
2022-10-18T06:10:57.821Z,102283.38
2022-10-18T06:13:45.763Z,102282.56
2022-10-18T06:16:13.055Z,102287.31
2022-10-18T06:18:39.978Z,102282.56
2022-10-18T06:21:07.616Z,102291.38
2022-10-18T06:23:34.631Z,102283.75
2022-10-18T06:26:11.661Z,102289.91
2022-10-18T06:28:58.952Z,102288.28
2022-10-18T06:31:59.880Z,102291.47
2022-10-18T06:34:40.374Z,102293.63
2022-10-18T06:37:18.648Z,102300.69
2022-10-18T06:39:46.233Z,102298.88
2022-10-18T06:42:13.013Z,102293.34
2022-10-18T06:44:59.815Z,102301.00
2022-10-18T06:47:40.487Z,102302.16
2022-10-18T06:50:07.654Z,102295.88
2022-10-18T06:52:34.789Z,102309.22
2022-10-18T06:55:21.840Z,102308.22
2022-10-18T06:58:22.908Z,102307.44
2022-10-18T07:01:21.162Z,102311.09
2022-10-18T07:04:21.872Z,102311.69
2022-10-18T07:07:02.329Z,102316.38
2022-10-18T07:09:29.231Z,102324.88
2022-10-18T07:12:15.868Z,102322.84
2022-10-18T07:15:17.954Z,102323.84
2022-10-18T07:17:58.381Z,102329.97
2022-10-18T07:20:25.102Z,102326.34
2022-10-18T07:22:55.899Z,102325.19
2022-10-18T07:25:24.817Z,102330.38
2022-10-18T07:27:53.996Z,102331.25
2022-10-18T07:30:20.958Z,102328.22
2022-10-18T07:32:47.776Z,102339.78
2022-10-18T07:35:14.647Z,102333.94
2022-10-18T07:38:01.886Z,102332.94
2022-10-18T07:41:02.844Z,102340.34
2022-10-18T07:43:45.760Z,102346.09
2022-10-18T07:46:13.046Z,102347.56
2022-10-18T07:48:59.854Z,102337.84
2022-10-18T07:51:40.411Z,102335.25
2022-10-18T07:54:28.886Z,102336.06
2022-10-18T07:57:30.046Z,102329.97
2022-10-18T08:00:30.859Z,102329.03
2022-10-18T08:03:20.052Z,102332.72
2022-10-18T08:05:54.001Z,102335.31
2022-10-18T08:08:22.353Z,102328.72
2022-10-18T08:10:49.513Z,102324.50
2022-10-18T08:13:16.393Z,102339.88
2022-10-18T08:15:43.228Z,102327.19
2022-10-18T08:18:10.203Z,102323.78
2022-10-18T08:20:37.756Z,102329.22
2022-10-18T08:23:05.029Z,102325.28
2022-10-18T08:25:32.114Z,102337.13
2022-10-18T08:27:59.014Z,102340.16
2022-10-18T08:30:25.884Z,102335.59
2022-10-18T08:32:52.678Z,102326.56
2022-10-18T08:35:19.479Z,102331.50
2022-10-18T08:37:46.340Z,102330.59
2022-10-18T08:40:14.123Z,102320.53
2022-10-18T08:42:50.459Z,102324.50
2022-10-18T08:45:42.257Z,102323.31
2022-10-18T08:48:42.391Z,102322.28
2022-10-18T08:51:17.421Z,102316.59
2022-10-18T08:54:16.911Z,102313.50
2022-10-18T08:57:24.954Z,102317.97
2022-10-18T09:00:32.936Z,102312.66
2022-10-18T09:03:53.941Z,102307.72
2022-10-18T09:06:37.393Z,102309.34
2022-10-18T09:09:07.286Z,102303.78
2022-10-18T09:11:43.167Z,102306.28
2022-10-18T09:14:28.325Z,102298.78
2022-10-18T09:16:55.189Z,102294.63
2022-10-18T09:19:28.026Z,102296.69
2022-10-18T09:21:55.770Z,102293.75
2022-10-18T09:24:26.839Z,102287.75
2022-10-18T09:26:57.581Z,102285.25
2022-10-18T09:29:24.345Z,102285.03
2022-10-18T09:31:54.071Z,102289.78
2022-10-18T09:34:39.656Z,102279.81
2022-10-18T09:37:27.979Z,102272.69
2022-10-18T09:40:19.073Z,102273.28
2022-10-18T09:43:11.786Z,102276.84
2022-10-18T09:45:57.993Z,102278.53
2022-10-18T09:49:01.929Z,102257.72
2022-10-18T09:52:03.943Z,102256.78
2022-10-18T09:54:53.979Z,102255.88
2022-10-18T09:57:58.053Z,102256.63
2022-10-18T10:01:00.972Z,102256.63
2022-10-18T10:03:49.566Z,102247.59
2022-10-18T10:06:17.673Z,102252.97
2022-10-18T10:08:47.813Z,102248.59
2022-10-18T10:11:32.435Z,102242.78
2022-10-18T10:14:18.057Z,102239.34
2022-10-18T10:16:44.912Z,102242.47
2022-10-18T10:19:38.030Z,102237.13
2022-10-18T10:22:06.536Z,102231.25
2022-10-18T10:24:35.479Z,102229.72
2022-10-18T10:27:04.387Z,102225.34
2022-10-18T10:30:05.832Z,102226.13
2022-10-18T10:33:00.949Z,102232.31
2022-10-18T10:36:10.965Z,102226.13
2022-10-18T10:39:06.903Z,102220.28
2022-10-18T10:41:34.191Z,102217.69
2022-10-18T10:44:30.060Z,102213.22
2022-10-18T10:47:25.582Z,102205.00
2022-10-18T10:49:56.196Z,102199.88
2022-10-18T10:52:43.095Z,102202.50
2022-10-18T10:55:48.014Z,102197.00
2022-10-18T10:58:30.869Z,102190.50
2022-10-18T11:01:30.992Z,102182.16
2022-10-18T11:04:31.073Z,102180.56
2022-10-18T11:07:37.140Z,102173.84
2022-10-18T11:10:07.769Z,102178.38
2022-10-18T11:12:38.458Z,102168.78
2022-10-18T11:15:17.466Z,102165.97
2022-10-18T11:18:03.016Z,102157.03
2022-10-18T11:20:45.521Z,102146.41
2022-10-18T11:23:15.492Z,102143.69
2022-10-18T11:25:56.026Z,102133.63
2022-10-18T11:28:41.549Z,102125.28
2022-10-18T11:31:36.020Z,102126.31
2022-10-18T11:34:50.169Z,102126.47
2022-10-18T11:37:43.100Z,102103.13
2022-10-18T11:40:19.170Z,102109.78
2022-10-18T11:43:04.754Z,102097.41
2022-10-18T11:45:34.578Z,102082.41
2022-10-18T11:48:04.331Z,102081.09
2022-10-18T11:50:38.703Z,102079.41
2022-10-18T11:53:33.045Z,102076.00
2022-10-18T11:56:38.022Z,102066.31
2022-10-18T11:59:28.317Z,102062.38
2022-10-18T12:02:15.165Z,102065.16
2022-10-18T12:05:24.538Z,102052.72
2022-10-18T12:07:51.836Z,102052.63
2022-10-18T12:10:31.534Z,102049.00
2022-10-18T12:13:09.669Z,102041.06
2022-10-18T12:15:39.695Z,102042.75
2022-10-18T12:18:11.236Z,102034.78
2022-10-18T12:20:41.846Z,102018.00
2022-10-18T12:23:14.654Z,102022.69
2022-10-18T12:25:43.213Z,102025.22
2022-10-18T12:28:28.832Z,102014.53
2022-10-18T12:31:22.058Z,102010.19
2022-10-18T12:34:21.263Z,102006.53
2022-10-18T12:36:48.181Z,101998.66
2022-10-18T12:39:43.571Z,102002.25
2022-10-18T12:42:55.058Z,101998.66
2022-10-18T12:45:46.697Z,101991.47
2022-10-18T12:48:56.324Z,101985.28
2022-10-18T12:52:07.151Z,101984.44
2022-10-18T12:55:16.973Z,101964.91
2022-10-18T12:58:10.909Z,101963.09
2022-10-18T13:00:37.714Z,101958.69
2022-10-18T13:03:13.377Z,101948.88
2022-10-18T13:06:06.655Z,101946.22
2022-10-18T13:08:48.296Z,101943.59
2022-10-18T13:11:27.506Z,101934.66
2022-10-18T13:16:37.839Z,101941.72
2022-10-18T13:19:23.614Z,101943.53
2022-10-18T13:21:59.840Z,101938.22
2022-10-18T13:24:32.902Z,101932.00
2022-10-18T13:27:31.078Z,101927.53
2022-10-18T13:30:14.092Z,101937.34
2022-10-18T13:33:16.821Z,101923.13
2022-10-18T13:35:46.971Z,101924.91
2022-10-18T13:38:36.073Z,101924.91
2022-10-18T13:41:17.005Z,101924.91
2022-10-18T13:43:53.264Z,101916.91
2022-10-18T13:46:21.204Z,101916.88
2022-10-18T13:48:47.995Z,101915.97
2022-10-18T13:51:35.220Z,101912.44
2022-10-18T13:54:36.067Z,101914.22
2022-10-18T13:57:56.260Z,101912.44
2022-10-18T14:00:49.067Z,101908.88
2022-10-18T14:03:57.006Z,101905.34
2022-10-18T14:07:02.352Z,101907.06
2022-10-18T14:09:56.116Z,101899.13
2022-10-18T14:12:27.878Z,101892.88
2022-10-18T14:14:56.636Z,101883.06
2022-10-18T14:17:35.724Z,101894.66
2022-10-18T14:20:23.012Z,101891.97
2022-10-18T14:22:56.509Z,101884.88
2022-10-18T14:25:28.129Z,101891.06
2022-10-18T14:28:21.658Z,101887.53
2022-10-18T14:31:29.129Z,101883.09
2022-10-18T14:34:15.361Z,101886.59
2022-10-18T14:36:46.274Z,101884.88
2022-10-18T14:39:39.121Z,101884.88
2022-10-18T14:42:31.026Z,101884.84
2022-10-18T14:44:57.911Z,101872.41
2022-10-18T14:47:26.066Z,101881.28
2022-10-18T14:50:13.150Z,101866.19
2022-10-18T14:53:18.232Z,101866.19
2022-10-18T14:56:20.193Z,101871.50
2022-10-18T14:59:02.591Z,101860.88
2022-10-18T15:01:30.714Z,101851.06
2022-10-18T15:03:58.899Z,101851.09
2022-10-18T15:06:46.222Z,101858.19
2022-10-18T15:09:48.225Z,101848.41
2022-10-18T15:12:33.905Z,101853.72
2022-10-18T15:15:15.877Z,101856.38
2022-10-18T15:17:43.516Z,101848.41
2022-10-18T15:20:28.498Z,101845.72
2022-10-18T15:23:38.153Z,101837.72
2022-10-18T15:26:40.171Z,101845.75
2022-10-18T15:29:21.185Z,101843.06
2022-10-18T15:31:49.574Z,101846.63
2022-10-18T15:34:22.685Z,101848.38
2022-10-18T15:36:51.039Z,101835.03
2022-10-18T15:39:39.176Z,101838.56
2022-10-18T15:42:46.681Z,101832.31
2022-10-18T15:45:25.659Z,101830.50
2022-10-18T15:48:10.877Z,101829.63
2022-10-18T15:50:39.959Z,101826.09
2022-10-18T15:53:28.331Z,101817.19
2022-10-18T15:56:11.450Z,101814.47
2022-10-18T15:59:06.298Z,101821.53
2022-10-18T16:01:46.935Z,101818.78
2022-10-18T16:04:37.174Z,101826.69
2022-10-18T16:07:22.371Z,101824.81
2022-10-18T16:10:09.398Z,101825.59
2022-10-18T16:12:49.913Z,101819.28
2022-10-18T16:15:17.172Z,101814.72
2022-10-18T16:17:44.282Z,101815.47
2022-10-18T16:20:25.048Z,101818.03
2022-10-18T16:23:12.386Z,101820.53
2022-10-18T16:26:13.202Z,101812.38
2022-10-18T16:29:14.267Z,101815.72
2022-10-18T16:31:58.207Z,101822.56
2022-10-18T16:34:27.204Z,101824.16
2022-10-18T16:36:54.213Z,101824.91
2022-10-18T16:39:21.810Z,101829.16
2022-10-18T16:41:48.688Z,101834.28
2022-10-18T16:44:16.941Z,101841.25
2022-10-18T16:46:43.789Z,101838.44
2022-10-18T16:49:35.260Z,101839.25
2022-10-18T16:52:36.364Z,101836.28
2022-10-18T16:55:37.337Z,101840.50
2022-10-18T16:58:36.183Z,101839.53
2022-10-18T17:01:05.384Z,101854.34
2022-10-18T17:03:55.218Z,101852.44
2022-10-18T17:06:56.289Z,101854.91
2022-10-18T17:09:57.306Z,101853.88
2022-10-18T17:12:37.706Z,101863.47
2022-10-18T17:15:04.843Z,101858.06
2022-10-18T17:17:52.421Z,101864.19
2022-10-18T17:20:33.406Z,101867.44
2022-10-18T17:23:00.631Z,101869.03
2022-10-18T17:25:58.928Z,101863.63
2022-10-18T17:28:52.968Z,101871.59
2022-10-18T17:31:40.311Z,101871.53
2022-10-18T17:34:21.510Z,101866.91
2022-10-18T17:36:48.518Z,101877.38
2022-10-18T17:39:15.721Z,101872.91
2022-10-18T17:41:42.661Z,101876.31
2022-10-18T17:44:10.066Z,101873.56
2022-10-18T17:46:57.647Z,101876.25
2022-10-18T17:49:58.334Z,101877.88
2022-10-18T17:55:30.433Z,101878.56
2022-10-18T17:58:31.362Z,101877.56
2022-10-18T18:01:13.008Z,101880.88
2022-10-18T18:03:40.365Z,101883.38
2022-10-18T18:06:23.643Z,101882.44
2022-10-18T18:08:51.096Z,101876.22
2022-10-18T18:11:38.432Z,101881.72
2022-10-18T18:14:39.292Z,101896.84
2022-10-18T18:17:28.627Z,101892.53
2022-10-18T18:20:01.406Z,101888.88
2022-10-18T18:22:28.553Z,101891.38
2022-10-18T18:24:55.491Z,101881.38
2022-10-18T18:27:22.302Z,101887.59
2022-10-18T18:29:49.136Z,101880.31
2022-10-18T18:32:36.402Z,101890.06
2022-10-18T18:35:17.006Z,101890.81
2022-10-18T18:37:44.045Z,101897.22
2022-10-18T18:40:11.734Z,101884.41
2022-10-18T18:42:38.751Z,101892.06
2022-10-18T18:45:07.058Z,101892.94
2022-10-18T18:47:42.455Z,101892.78
2022-10-18T18:50:43.517Z,101892.78
2022-10-18T18:53:18.836Z,101882.09
2022-10-18T18:56:06.347Z,101883.94
2022-10-18T18:59:08.671Z,101881.09
2022-10-18T19:02:11.168Z,101882.75
2022-10-18T19:07:52.904Z,101881.56
2022-10-18T19:10:20.050Z,101883.16
2022-10-18T19:13:07.588Z,101880.38
2022-10-18T19:16:26.676Z,101884.69
2022-10-18T19:21:58.713Z,101887.31
2022-10-18T19:24:30.774Z,101874.78
2022-10-18T19:27:09.203Z,101877.19
2022-10-18T19:29:38.303Z,101892.34
2022-10-18T19:32:25.381Z,101889.53
2022-10-18T19:35:27.209Z,101892.03
2022-10-18T19:38:08.267Z,101892.84
2022-10-18T19:40:35.433Z,101891.88
2022-10-18T19:43:02.944Z,101885.72
2022-10-18T19:45:30.054Z,101876.81
2022-10-18T19:48:18.031Z,101883.78
2022-10-18T19:51:06.363Z,101882.00
2022-10-18T19:53:35.691Z,101877.44
2022-10-18T19:56:37.542Z,101870.38
2022-10-18T19:59:34.643Z,101885.13
2022-10-18T20:02:35.518Z,101884.94
2022-10-18T20:05:16.304Z,101892.66
2022-10-18T20:07:46.303Z,101894.34
2022-10-18T20:10:33.524Z,101893.47
2022-10-18T20:13:35.394Z,101901.31
2022-10-18T20:16:17.536Z,101904.19
2022-10-18T20:18:44.428Z,101902.53
2022-10-18T20:21:31.334Z,101902.53
2022-10-18T20:24:32.364Z,101902.53
2022-10-18T20:27:33.728Z,101903.34
2022-10-18T20:30:21.395Z,101897.97
2022-10-18T20:33:22.388Z,101907.63
2022-10-18T20:36:07.580Z,101903.94
2022-10-18T20:38:35.506Z,101903.91
2022-10-18T20:41:06.437Z,101900.34
2022-10-18T20:43:34.194Z,101900.50
2022-10-18T20:46:01.587Z,101905.84
2022-10-18T20:48:29.893Z,101901.38
2022-10-18T20:50:57.122Z,101909.84
2022-10-18T20:53:23.984Z,101906.38
2022-10-18T20:56:18.353Z,101908.72
2022-10-18T20:58:58.905Z,101904.13
2022-10-18T21:01:26.006Z,101903.91
2022-10-18T21:04:17.378Z,101901.91
2022-10-18T21:07:18.430Z,101902.69
2022-10-18T21:09:58.901Z,101899.09
2022-10-18T21:12:27.610Z,101900.13
2022-10-18T21:14:55.769Z,101901.91
2022-10-18T21:17:22.761Z,101899.25
2022-10-18T21:19:49.633Z,101899.88
2022-10-18T21:22:19.416Z,101897.31
2022-10-18T21:25:06.524Z,101896.47
2022-10-18T21:28:07.407Z,101890.03
2022-10-18T21:30:47.818Z,101891.88
2022-10-18T21:33:34.407Z,101897.22
2022-10-18T21:36:14.961Z,101891.84
2022-10-18T21:38:44.092Z,101895.31
2022-10-18T21:41:12.235Z,101899.16
2022-10-18T21:43:39.871Z,101891.38
2022-10-18T21:46:26.382Z,101889.69
2022-10-18T21:49:08.571Z,101888.31
2022-10-18T21:51:35.789Z,101888.13
2022-10-18T21:54:25.378Z,101887.31
2022-10-18T21:57:26.680Z,101883.44
2022-10-18T22:00:10.322Z,101887.81
2022-10-18T22:02:37.534Z,101884.34
2022-10-18T22:05:08.218Z,101880.31
2022-10-18T22:07:58.430Z,101876.59
2022-10-18T22:10:39.017Z,101882.16
2022-10-18T22:13:06.016Z,101878.81
2022-10-18T22:15:32.938Z,101869.88
2022-10-18T22:17:59.781Z,101873.63
2022-10-18T22:20:26.665Z,101882.38
2022-10-18T22:22:54.199Z,101881.41
2022-10-18T22:25:21.302Z,101874.03
2022-10-18T22:27:48.103Z,101876.16
2022-10-18T22:30:35.453Z,101869.28
2022-10-18T22:36:16.813Z,101872.53
2022-10-18T22:38:43.714Z,101866.47
2022-10-18T22:41:11.300Z,101870.16
2022-10-18T22:43:47.748Z,101872.03
2022-10-18T22:46:34.425Z,101871.06
2022-10-18T22:49:15.353Z,101868.06
2022-10-18T22:51:42.367Z,101868.78
2022-10-18T22:54:29.429Z,101871.28
2022-10-18T22:57:30.488Z,101874.72
2022-10-18T23:00:11.554Z,101871.88
2022-10-18T23:02:38.326Z,101874.69
2022-10-18T23:05:05.425Z,101872.53
2022-10-18T23:07:52.454Z,101871.97
2022-10-18T23:10:32.874Z,101868.31
2022-10-18T23:12:59.829Z,101867.56
2022-10-18T23:15:26.614Z,101861.03
2022-10-18T23:17:54.779Z,101864.91
2022-10-18T23:20:21.953Z,101859.94
2022-10-18T23:22:48.828Z,101851.94
2022-10-18T23:25:15.922Z,101855.88
2022-10-18T23:30:10.952Z,101845.88
2022-10-18T23:32:40.121Z,101852.84
2022-10-18T23:35:07.288Z,101848.63
2022-10-18T23:37:54.459Z,101847.47
2022-10-18T23:40:55.476Z,101849.25
2022-10-18T23:43:44.958Z,101845.41
2022-10-18T23:46:32.432Z,101840.84
2022-10-18T23:49:12.928Z,101839.44
2022-10-18T23:51:39.809Z,101842.75
2022-10-18T23:54:26.567Z,101835.66
2022-10-18T23:57:27.495Z,101839.84
